createdAt,value
2023-05-21T00:00:53.809Z,99071.21
2023-05-21T00:02:20.632Z,99074.55
2023-05-21T00:03:30.410Z,99073.77
2023-05-21T00:04:38.754Z,99074.05
2023-05-21T00:05:51.422Z,99071.92
2023-05-21T00:06:59.873Z,99068.25
2023-05-21T00:08:08.073Z,99070.75
2023-05-21T00:09:16.272Z,99066.91
2023-05-21T00:10:24.626Z,99066.14
2023-05-21T00:11:32.592Z,99069.52
2023-05-21T00:12:40.406Z,99071.56
2023-05-21T00:13:47.344Z,99071.40
2023-05-21T00:14:54.811Z,99077.83
2023-05-21T00:16:02.577Z,99077.15
2023-05-21T00:17:09.610Z,99080.80
2023-05-21T00:18:18.520Z,99080.36
2023-05-21T00:19:25.820Z,99082.46
2023-05-21T00:20:33.513Z,99083.27
2023-05-21T00:21:40.678Z,99081.00
2023-05-21T00:22:48.025Z,99081.61
2023-05-21T00:23:58.649Z,99082.51
2023-05-21T00:25:07.363Z,99084.45
2023-05-21T00:26:15.584Z,99081.61
2023-05-21T00:27:22.819Z,99083.16
2023-05-21T00:28:30.567Z,99078.60
2023-05-21T00:29:38.139Z,99082.31
2023-05-21T00:30:45.292Z,99080.42
2023-05-21T00:31:54.442Z,99082.42
2023-05-21T00:33:04.897Z,99083.42
2023-05-21T00:34:15.545Z,99084.08
2023-05-21T00:35:23.679Z,99084.17
2023-05-21T00:36:32.149Z,99083.01
2023-05-21T00:37:39.718Z,99083.28
2023-05-21T00:38:48.196Z,99081.16
2023-05-21T00:39:57.560Z,99082.71
2023-05-21T00:41:06.466Z,99085.59
2023-05-21T00:42:14.664Z,99088.27
2023-05-21T00:43:27.600Z,99091.31
2023-05-21T00:44:35.751Z,99095.25
2023-05-21T00:45:46.218Z,99092.87
2023-05-21T00:46:55.192Z,99090.47
2023-05-21T00:48:04.236Z,99089.08
2023-05-21T00:49:13.520Z,99081.64
2023-05-21T00:50:22.003Z,99085.33
2023-05-21T00:51:31.739Z,99080.84
2023-05-21T00:52:42.749Z,99078.68
2023-05-21T00:53:54.797Z,99076.63
2023-05-21T00:55:03.008Z,99076.11
2023-05-21T00:56:10.429Z,99074.55
2023-05-21T00:57:18.768Z,99071.02
2023-05-21T00:58:28.023Z,99070.99
2023-05-21T00:59:36.872Z,99070.83
2023-05-21T01:00:43.558Z,99074.70
2023-05-21T01:01:57.614Z,99074.93
2023-05-21T01:03:06.866Z,99076.30
2023-05-21T01:04:15.596Z,99074.25
2023-05-21T01:05:24.254Z,99071.59
2023-05-21T01:06:31.599Z,99071.58
2023-05-21T01:07:40.061Z,99066.70
2023-05-21T01:08:47.964Z,99054.59
2023-05-21T01:09:56.718Z,99052.75
2023-05-21T01:11:05.530Z,99048.81
2023-05-21T01:12:13.040Z,99047.70
2023-05-21T01:13:22.902Z,99048.32
2023-05-21T01:14:31.261Z,99048.99
2023-05-21T01:15:40.934Z,99050.77
2023-05-21T01:16:49.621Z,99051.04
2023-05-21T01:17:58.018Z,99052.52
2023-05-21T01:19:07.479Z,99056.02
2023-05-21T01:20:16.235Z,99063.45
2023-05-21T01:21:24.774Z,99066.55
2023-05-21T01:22:34.153Z,99068.48
2023-05-21T01:23:41.732Z,99073.25
2023-05-21T01:24:51.234Z,99080.35
2023-05-21T01:25:59.936Z,99083.35
2023-05-21T01:27:08.778Z,99086.63
2023-05-21T01:28:16.787Z,99090.74
2023-05-21T01:29:24.714Z,99091.94
2023-05-21T01:30:33.423Z,99094.27
2023-05-21T01:32:08.054Z,99094.61
2023-05-21T01:33:29.297Z,99098.37
2023-05-21T01:35:02.626Z,99099.70
2023-05-21T01:36:18.733Z,99100.53
2023-05-21T01:37:35.149Z,99099.19
2023-05-21T01:38:44.460Z,99101.52
2023-05-21T01:40:04.509Z,99096.41
2023-05-21T01:41:15.870Z,99093.35
2023-05-21T01:42:22.972Z,99093.19
2023-05-21T01:43:31.480Z,99092.85
2023-05-21T01:44:39.109Z,99090.52
2023-05-21T01:45:46.192Z,99086.89
2023-05-21T01:46:55.459Z,99088.27
2023-05-21T01:48:04.190Z,99084.94
2023-05-21T01:49:12.475Z,99085.98
2023-05-21T01:50:22.082Z,99083.77
2023-05-21T01:51:31.162Z,99086.70
2023-05-21T01:52:39.851Z,99091.09
2023-05-21T01:53:47.469Z,99091.75
2023-05-21T01:54:55.960Z,99091.52
2023-05-21T01:56:05.099Z,99095.45
2023-05-21T01:57:12.465Z,99096.45
2023-05-21T01:58:20.440Z,99096.95
2023-05-21T01:59:29.910Z,99092.66
2023-05-21T02:00:38.700Z,99093.11
2023-05-21T02:01:46.289Z,99097.83
2023-05-21T02:02:53.904Z,99106.42
2023-05-21T02:04:02.623Z,99110.52
2023-05-21T02:05:11.327Z,99114.08
2023-05-21T02:06:18.239Z,99116.96
2023-05-21T02:07:25.812Z,99119.39
2023-05-21T02:08:32.990Z,99122.32
2023-05-21T02:09:41.171Z,99123.82
2023-05-21T02:10:48.508Z,99125.38
2023-05-21T02:11:56.110Z,99122.37
2023-05-21T02:13:04.023Z,99125.92
2023-05-21T02:14:12.834Z,99126.48
2023-05-21T02:15:21.493Z,99125.30
2023-05-21T02:16:29.488Z,99124.53
2023-05-21T02:17:36.772Z,99124.80
2023-05-21T02:18:51.042Z,99128.90
2023-05-21T02:19:57.724Z,99129.79
2023-05-21T02:21:04.966Z,99131.60
2023-05-21T02:22:12.796Z,99132.98
2023-05-21T02:23:20.189Z,99134.38
2023-05-21T02:24:28.271Z,99138.77
2023-05-21T02:25:37.082Z,99133.83
2023-05-21T02:26:44.659Z,99130.48
2023-05-21T02:27:54.837Z,99131.48
2023-05-21T02:29:02.253Z,99132.42
2023-05-21T02:30:11.056Z,99135.41
2023-05-21T02:31:18.850Z,99143.63
2023-05-21T02:32:27.285Z,99149.61
2023-05-21T02:33:36.135Z,99149.55
2023-05-21T02:34:45.249Z,99146.15
2023-05-21T02:35:53.730Z,99147.27
2023-05-21T02:37:02.234Z,99147.77
2023-05-21T02:38:11.040Z,99143.60
2023-05-21T02:39:18.586Z,99146.48
2023-05-21T02:40:27.002Z,99149.38
2023-05-21T02:41:36.141Z,99151.70
2023-05-21T02:42:43.208Z,99153.80
2023-05-21T02:43:52.780Z,99156.04
2023-05-21T02:45:02.195Z,99154.64
2023-05-21T02:46:10.425Z,99154.29
2023-05-21T02:47:18.170Z,99154.29
2023-05-21T02:48:26.243Z,99146.56
2023-05-21T02:49:34.356Z,99146.05
2023-05-21T02:50:41.028Z,99146.05
2023-05-21T02:51:48.688Z,99145.49
2023-05-21T02:52:58.201Z,99147.20
2023-05-21T02:54:08.276Z,99149.93
2023-05-21T02:55:15.794Z,99151.88
2023-05-21T02:56:23.661Z,99156.20
2023-05-21T02:57:31.598Z,99157.41
2023-05-21T02:58:39.959Z,99155.86
2023-05-21T02:59:48.125Z,99154.67
2023-05-21T03:00:55.820Z,99152.23
2023-05-21T03:02:02.413Z,99154.02
2023-05-21T03:03:09.691Z,99153.69
2023-05-21T03:04:19.162Z,99156.02
2023-05-21T03:05:26.084Z,99157.52
2023-05-21T03:06:34.537Z,99161.34
2023-05-21T03:07:45.893Z,99165.55
2023-05-21T03:08:53.018Z,99167.72
2023-05-21T03:10:01.556Z,99164.49
2023-05-21T03:11:10.741Z,99168.03
2023-05-21T03:12:18.835Z,99167.02
2023-05-21T03:13:28.337Z,99167.18
2023-05-21T03:14:37.139Z,99168.91
2023-05-21T03:15:45.174Z,99174.36
2023-05-21T03:16:53.124Z,99183.69
2023-05-21T03:18:02.004Z,99198.29
2023-05-21T03:19:11.393Z,99207.79
2023-05-21T03:20:20.582Z,99212.73
2023-05-21T03:21:31.768Z,99211.45
2023-05-21T03:22:39.586Z,99212.44
2023-05-21T03:23:47.157Z,99212.38
2023-05-21T03:24:55.075Z,99215.14
2023-05-21T03:26:04.430Z,99220.76
2023-05-21T03:27:12.611Z,99223.75
2023-05-21T03:28:21.396Z,99224.91
2023-05-21T03:29:30.194Z,99225.23
2023-05-21T03:30:40.870Z,99232.52
2023-05-21T03:32:08.325Z,99233.45
2023-05-21T03:33:17.235Z,99236.06
2023-05-21T03:34:27.477Z,99235.40
2023-05-21T03:35:36.150Z,99230.19
2023-05-21T03:36:44.455Z,99232.50
2023-05-21T03:37:51.948Z,99232.60
2023-05-21T03:38:59.694Z,99236.22
2023-05-21T03:40:07.977Z,99238.87
2023-05-21T03:41:15.825Z,99241.59
2023-05-21T03:42:25.163Z,99236.41
2023-05-21T03:43:34.993Z,99233.59
2023-05-21T03:44:42.674Z,99230.20
2023-05-21T03:46:12.528Z,99228.70
2023-05-21T03:47:39.851Z,99231.46
2023-05-21T03:48:48.029Z,99237.81
2023-05-21T03:49:57.401Z,99240.41
2023-05-21T03:51:07.119Z,99238.67
2023-05-21T03:52:14.990Z,99241.56
2023-05-21T03:53:23.220Z,99242.56
2023-05-21T03:54:30.569Z,99243.23
2023-05-21T03:55:40.818Z,99245.21
2023-05-21T03:56:48.500Z,99246.84
2023-05-21T03:57:56.540Z,99248.06
2023-05-21T03:59:05.036Z,99251.84
2023-05-21T04:00:13.468Z,99250.13
2023-05-21T04:01:23.976Z,99260.95
2023-05-21T04:02:32.148Z,99266.84
2023-05-21T04:03:40.780Z,99268.39
2023-05-21T04:04:49.912Z,99270.16
2023-05-21T04:05:58.377Z,99275.77
2023-05-21T04:07:07.284Z,99277.20
2023-05-21T04:08:16.497Z,99278.71
2023-05-21T04:09:25.554Z,99279.04
2023-05-21T04:10:34.057Z,99275.65
2023-05-21T04:11:41.540Z,99273.52
2023-05-21T04:12:53.603Z,99273.48
2023-05-21T04:14:00.789Z,99271.85
2023-05-21T04:15:09.153Z,99271.96
2023-05-21T04:16:20.318Z,99274.13
2023-05-21T04:17:29.718Z,99278.30
2023-05-21T04:18:37.804Z,99276.56
2023-05-21T04:19:45.352Z,99275.63
2023-05-21T04:20:54.161Z,99274.16
2023-05-21T04:22:01.982Z,99269.55
2023-05-21T04:23:11.756Z,99268.38
2023-05-21T04:24:21.099Z,99269.83
2023-05-21T04:25:35.955Z,99270.34
2023-05-21T04:26:43.681Z,99272.66
2023-05-21T04:27:52.061Z,99277.43
2023-05-21T04:29:00.874Z,99277.10
2023-05-21T04:30:09.350Z,99276.93
2023-05-21T04:31:17.733Z,99272.04
2023-05-21T04:32:25.363Z,99273.92
2023-05-21T04:33:32.913Z,99270.04
2023-05-21T04:34:40.758Z,99269.19
2023-05-21T04:35:52.402Z,99265.25
2023-05-21T04:37:01.817Z,99266.67
2023-05-21T04:38:10.500Z,99270.91
2023-05-21T04:39:19.351Z,99274.73
2023-05-21T04:40:26.693Z,99282.52
2023-05-21T04:41:34.636Z,99282.85
2023-05-21T04:42:42.202Z,99282.07
2023-05-21T04:43:49.091Z,99278.28
2023-05-21T04:44:57.032Z,99276.21
2023-05-21T04:46:04.818Z,99274.66
2023-05-21T04:47:13.980Z,99268.79
2023-05-21T04:48:21.836Z,99266.94
2023-05-21T04:49:32.547Z,99264.65
2023-05-21T04:50:40.703Z,99267.77
2023-05-21T04:51:49.490Z,99273.81
2023-05-21T04:52:57.267Z,99275.35
2023-05-21T04:54:05.793Z,99272.41
2023-05-21T04:55:14.607Z,99275.91
2023-05-21T04:56:23.992Z,99277.63
2023-05-21T04:57:32.473Z,99280.96
2023-05-21T04:58:41.867Z,99283.30
2023-05-21T04:59:49.868Z,99282.92
2023-05-21T05:00:58.339Z,99282.85
2023-05-21T05:02:05.500Z,99284.19
2023-05-21T05:03:13.433Z,99284.68
2023-05-21T05:04:24.017Z,99287.00
2023-05-21T05:05:32.157Z,99285.89
2023-05-21T05:06:39.019Z,99277.10
2023-05-21T05:07:48.481Z,99278.66
2023-05-21T05:08:55.998Z,99275.93
2023-05-21T05:10:05.222Z,99278.36
2023-05-21T05:11:13.181Z,99277.03
2023-05-21T05:12:20.775Z,99276.09
2023-05-21T05:13:28.604Z,99275.76
2023-05-21T05:14:36.084Z,99274.98
2023-05-21T05:15:43.960Z,99277.14
2023-05-21T05:16:52.172Z,99275.74
2023-05-21T05:18:01.521Z,99275.36
2023-05-21T05:19:08.811Z,99281.00
2023-05-21T05:20:15.960Z,99283.63
2023-05-21T05:21:24.760Z,99286.23
2023-05-21T05:22:32.554Z,99287.61
2023-05-21T05:23:39.910Z,99286.33
2023-05-21T05:24:51.161Z,99286.11
2023-05-21T05:25:59.558Z,99286.93
2023-05-21T05:27:07.439Z,99287.65
2023-05-21T05:28:14.339Z,99286.61
2023-05-21T05:29:21.280Z,99286.38
2023-05-21T05:30:31.997Z,99282.02
2023-05-21T05:31:49.261Z,99283.15
2023-05-21T05:32:57.783Z,99283.27
2023-05-21T05:34:06.483Z,99286.38
2023-05-21T05:35:15.389Z,99292.98
2023-05-21T05:36:24.462Z,99290.95
2023-05-21T05:37:32.296Z,99289.39
2023-05-21T05:38:39.976Z,99289.63
2023-05-21T05:39:47.081Z,99287.84
2023-05-21T05:40:55.180Z,99285.49
2023-05-21T05:42:04.209Z,99282.27
2023-05-21T05:43:12.134Z,99283.20
2023-05-21T05:44:19.659Z,99279.48
2023-05-21T05:45:28.652Z,99277.25
2023-05-21T05:46:36.519Z,99274.59
2023-05-21T05:47:43.435Z,99271.45
2023-05-21T05:48:50.290Z,99274.19
2023-05-21T05:49:58.590Z,99274.33
2023-05-21T05:51:05.810Z,99276.53
2023-05-21T05:52:13.589Z,99272.02
2023-05-21T05:53:21.497Z,99267.35
2023-05-21T05:54:30.052Z,99265.73
2023-05-21T05:55:38.481Z,99266.54
2023-05-21T05:56:45.659Z,99263.74
2023-05-21T05:57:53.382Z,99266.39
2023-05-21T05:59:01.954Z,99265.20
2023-05-21T06:00:12.101Z,99264.52
2023-05-21T06:01:20.268Z,99267.11
2023-05-21T06:02:27.816Z,99265.20
2023-05-21T06:03:36.719Z,99268.86
2023-05-21T06:04:51.412Z,99268.45
2023-05-21T06:05:59.618Z,99267.48
2023-05-21T06:07:07.755Z,99263.08
2023-05-21T06:08:15.892Z,99263.76
2023-05-21T06:09:24.400Z,99262.95
2023-05-21T06:10:32.269Z,99264.71
2023-05-21T06:11:40.034Z,99263.34
2023-05-21T06:12:47.758Z,99260.08
2023-05-21T06:13:55.156Z,99258.78
2023-05-21T06:15:03.321Z,99260.46
2023-05-21T06:16:13.240Z,99263.49
2023-05-21T06:17:20.173Z,99258.29
2023-05-21T06:18:31.724Z,99255.77
2023-05-21T06:19:39.803Z,99254.79
2023-05-21T06:20:46.938Z,99252.38
2023-05-21T06:21:54.853Z,99251.02
2023-05-21T06:23:02.337Z,99248.92
2023-05-21T06:24:10.497Z,99245.78
2023-05-21T06:25:17.925Z,99244.09
2023-05-21T06:26:25.497Z,99241.27
2023-05-21T06:27:33.379Z,99241.02
2023-05-21T06:28:40.577Z,99239.55
2023-05-21T06:29:49.484Z,99237.62
2023-05-21T06:30:58.150Z,99232.59
2023-05-21T06:32:06.083Z,99234.41
2023-05-21T06:33:15.176Z,99232.69
2023-05-21T06:34:23.038Z,99230.27
2023-05-21T06:35:31.778Z,99233.30
2023-05-21T06:36:40.208Z,99233.27
2023-05-21T06:37:48.365Z,99236.98
2023-05-21T06:38:55.657Z,99238.81
2023-05-21T06:40:05.149Z,99234.57
2023-05-21T06:41:13.441Z,99238.05
2023-05-21T06:42:32.558Z,99238.08
2023-05-21T06:44:01.188Z,99235.73
2023-05-21T06:45:29.837Z,99236.34
2023-05-21T06:46:40.897Z,99237.77
2023-05-21T06:47:49.387Z,99238.25
2023-05-21T06:48:57.781Z,99232.95
2023-05-21T06:50:06.092Z,99231.92
2023-05-21T06:51:13.671Z,99232.02
2023-05-21T06:52:21.965Z,99229.65
2023-05-21T06:53:31.091Z,99226.02
2023-05-21T06:54:38.727Z,99223.84
2023-05-21T06:55:47.270Z,99223.02
2023-05-21T06:56:59.802Z,99227.52
2023-05-21T06:58:07.568Z,99226.23
2023-05-21T06:59:15.735Z,99227.15
2023-05-21T07:00:22.947Z,99226.80
2023-05-21T07:01:30.869Z,99226.63
2023-05-21T07:02:38.248Z,99222.16
2023-05-21T07:03:45.404Z,99221.20
2023-05-21T07:04:53.388Z,99220.80
2023-05-21T07:06:01.801Z,99219.73
2023-05-21T07:07:09.401Z,99219.20
2023-05-21T07:08:18.128Z,99219.09
2023-05-21T07:09:27.252Z,99219.54
2023-05-21T07:10:35.258Z,99218.46
2023-05-21T07:11:43.472Z,99222.96
2023-05-21T07:12:50.855Z,99222.27
2023-05-21T07:14:02.140Z,99220.95
2023-05-21T07:15:10.776Z,99220.65
2023-05-21T07:16:20.071Z,99217.25
2023-05-21T07:17:28.881Z,99214.90
2023-05-21T07:18:37.190Z,99212.94
2023-05-21T07:19:44.692Z,99212.65
2023-05-21T07:20:53.187Z,99216.65
2023-05-21T07:22:01.324Z,99217.14
2023-05-21T07:23:08.652Z,99216.85
2023-05-21T07:24:15.725Z,99211.63
2023-05-21T07:25:22.936Z,99209.77
2023-05-21T07:26:31.094Z,99209.86
2023-05-21T07:27:38.603Z,99209.70
2023-05-21T07:28:46.481Z,99208.63
2023-05-21T07:29:55.314Z,99212.25
2023-05-21T07:31:04.729Z,99214.13
2023-05-21T07:32:19.316Z,99213.67
2023-05-21T07:33:26.625Z,99214.17
2023-05-21T07:34:34.249Z,99213.09
2023-05-21T07:35:42.499Z,99215.37
2023-05-21T07:36:49.687Z,99214.30
2023-05-21T07:37:58.484Z,99211.29
2023-05-21T07:39:06.342Z,99210.39
2023-05-21T07:40:15.150Z,99213.67
2023-05-21T07:41:23.895Z,99209.31
2023-05-21T07:42:32.056Z,99208.31
2023-05-21T07:43:40.413Z,99207.00
2023-05-21T07:44:48.089Z,99208.45
2023-05-21T07:45:56.572Z,99203.70
2023-05-21T07:47:04.695Z,99206.83
2023-05-21T07:48:13.515Z,99204.20
2023-05-21T07:49:31.140Z,99201.92
2023-05-21T07:50:39.662Z,99203.86
2023-05-21T07:51:46.952Z,99199.40
2023-05-21T07:52:55.877Z,99194.55
2023-05-21T07:54:06.194Z,99188.33
2023-05-21T07:55:13.735Z,99184.58
2023-05-21T07:56:22.461Z,99185.98
2023-05-21T07:57:29.701Z,99185.30
2023-05-21T07:58:41.543Z,99185.66
2023-05-21T07:59:48.334Z,99183.92
2023-05-21T08:00:58.937Z,99185.64
2023-05-21T08:02:07.056Z,99185.90
2023-05-21T08:03:18.288Z,99184.73
2023-05-21T08:04:27.761Z,99184.28
2023-05-21T08:05:36.267Z,99183.66
2023-05-21T08:06:42.931Z,99181.64
2023-05-21T08:07:49.871Z,99180.20
2023-05-21T08:08:58.289Z,99179.57
2023-05-21T08:10:06.200Z,99176.71
2023-05-21T08:11:15.241Z,99176.11
2023-05-21T08:12:23.475Z,99171.59
2023-05-21T08:13:32.212Z,99168.68
2023-05-21T08:14:39.632Z,99168.71
2023-05-21T08:15:46.662Z,99169.93
2023-05-21T08:16:55.411Z,99168.59
2023-05-21T08:18:03.421Z,99169.92
2023-05-21T08:19:10.975Z,99167.96
2023-05-21T08:20:19.564Z,99166.06
2023-05-21T08:21:27.503Z,99160.44
2023-05-21T08:22:36.526Z,99160.02
2023-05-21T08:23:44.928Z,99158.45
2023-05-21T08:24:53.183Z,99158.27
2023-05-21T08:26:00.686Z,99156.27
2023-05-21T08:27:09.813Z,99158.10
2023-05-21T08:28:18.617Z,99162.04
2023-05-21T08:29:26.190Z,99162.77
2023-05-21T08:30:33.717Z,99164.60
2023-05-21T08:31:42.915Z,99161.54
2023-05-21T08:32:51.901Z,99160.09
2023-05-21T08:34:00.052Z,99158.36
2023-05-21T08:35:22.522Z,99157.56
2023-05-21T08:36:38.708Z,99151.88
2023-05-21T08:37:52.659Z,99150.15
2023-05-21T08:39:11.098Z,99148.91
2023-05-21T08:40:22.777Z,99147.73
2023-05-21T08:41:31.641Z,99147.11
2023-05-21T08:42:45.230Z,99145.48
2023-05-21T08:44:00.173Z,99144.14
2023-05-21T08:45:08.561Z,99143.98
2023-05-21T08:46:16.393Z,99144.80
2023-05-21T08:47:26.237Z,99144.64
2023-05-21T08:48:34.941Z,99140.97
2023-05-21T08:49:44.048Z,99138.30
2023-05-21T08:50:55.723Z,99139.73
2023-05-21T08:52:07.763Z,99139.70
2023-05-21T08:53:27.305Z,99139.61
2023-05-21T08:54:39.286Z,99133.19
2023-05-21T08:55:46.405Z,99133.00
2023-05-21T08:56:54.263Z,99125.81
2023-05-21T08:58:05.067Z,99125.66
2023-05-21T08:59:12.695Z,99121.80
2023-05-21T09:00:26.612Z,99120.29
2023-05-21T09:01:35.779Z,99118.98
2023-05-21T09:02:49.412Z,99120.61
2023-05-21T09:04:12.206Z,99120.27
2023-05-21T09:05:28.694Z,99122.55
2023-05-21T09:06:37.220Z,99128.39
2023-05-21T09:07:52.995Z,99124.89
2023-05-21T09:09:16.977Z,99129.67
2023-05-21T09:10:37.624Z,99130.33
2023-05-21T09:11:45.293Z,99128.48
2023-05-21T09:12:53.265Z,99128.95
2023-05-21T09:14:01.006Z,99127.55
2023-05-21T09:15:28.762Z,99126.86
2023-05-21T09:16:36.388Z,99124.02
2023-05-21T09:17:43.818Z,99127.35
2023-05-21T09:19:10.157Z,99123.29
2023-05-21T09:20:19.344Z,99124.68
2023-05-21T09:21:33.335Z,99126.23
2023-05-21T09:22:48.401Z,99121.86
2023-05-21T09:23:58.183Z,99120.14
2023-05-21T09:25:10.453Z,99115.16
2023-05-21T09:26:17.470Z,99119.21
2023-05-21T09:27:25.163Z,99118.07
2023-05-21T09:28:32.538Z,99117.52
2023-05-21T09:29:39.897Z,99119.74
2023-05-21T09:30:51.320Z,99117.74
2023-05-21T09:31:58.168Z,99116.56
2023-05-21T09:33:05.247Z,99117.94
2023-05-21T09:34:12.533Z,99117.66
2023-05-21T09:35:21.181Z,99117.09
2023-05-21T09:36:31.100Z,99117.05
2023-05-21T09:37:40.369Z,99116.81
2023-05-21T09:38:48.067Z,99117.75
2023-05-21T09:39:56.338Z,99116.52
2023-05-21T09:41:07.900Z,99115.91
2023-05-21T09:42:15.487Z,99116.63
2023-05-21T09:43:23.743Z,99117.74
2023-05-21T09:44:31.433Z,99116.41
2023-05-21T09:45:39.252Z,99119.17
2023-05-21T09:46:47.741Z,99115.27
2023-05-21T09:47:56.036Z,99114.02
2023-05-21T09:49:05.019Z,99111.80
2023-05-21T09:50:27.262Z,99109.71
2023-05-21T09:51:34.788Z,99109.55
2023-05-21T09:52:42.417Z,99108.60
2023-05-21T09:53:59.676Z,99108.03
2023-05-21T09:55:13.666Z,99106.36
2023-05-21T09:56:26.610Z,99109.48
2023-05-21T09:57:34.988Z,99109.81
2023-05-21T09:58:43.110Z,99108.02
2023-05-21T09:59:53.648Z,99110.52
2023-05-21T10:01:01.632Z,99111.05
2023-05-21T10:02:26.350Z,99110.70
2023-05-21T10:03:34.318Z,99112.17
2023-05-21T10:04:42.074Z,99109.85
2023-05-21T10:05:50.164Z,99106.79
2023-05-21T10:06:58.285Z,99108.79
2023-05-21T10:08:07.483Z,99106.94
2023-05-21T10:09:17.964Z,99107.44
2023-05-21T10:10:24.734Z,99106.20
2023-05-21T10:11:33.500Z,99105.11
2023-05-21T10:12:41.230Z,99105.31
2023-05-21T10:13:50.083Z,99102.92
2023-05-21T10:15:05.324Z,99103.42
2023-05-21T10:16:13.855Z,99103.81
2023-05-21T10:17:22.071Z,99098.63
2023-05-21T10:18:29.111Z,99096.30
2023-05-21T10:19:37.896Z,99095.69
2023-05-21T10:20:45.613Z,99096.17
2023-05-21T10:21:53.962Z,99094.42
2023-05-21T10:23:02.070Z,99095.77
2023-05-21T10:24:10.544Z,99099.06
2023-05-21T10:25:19.355Z,99099.72
2023-05-21T10:26:26.885Z,99096.82
2023-05-21T10:27:35.704Z,99095.98
2023-05-21T10:28:43.514Z,99092.73
2023-05-21T10:29:50.714Z,99092.44
2023-05-21T10:30:59.705Z,99094.27
2023-05-21T10:32:09.283Z,99090.81
2023-05-21T10:33:18.531Z,99090.29
2023-05-21T10:34:26.928Z,99088.77
2023-05-21T10:35:36.597Z,99085.98
2023-05-21T10:36:44.145Z,99083.08
2023-05-21T10:37:51.748Z,99083.02
2023-05-21T10:38:59.591Z,99081.45
2023-05-21T10:40:08.458Z,99077.98
2023-05-21T10:41:16.985Z,99078.21
2023-05-21T10:43:04.599Z,99079.49
2023-05-21T10:44:30.018Z,99081.01
2023-05-21T10:46:02.795Z,99083.85
2023-05-21T10:47:41.839Z,99086.23
2023-05-21T10:49:18.142Z,99091.48
2023-05-21T10:50:52.359Z,99089.98
2023-05-21T10:52:25.337Z,99087.02
2023-05-21T10:54:08.637Z,99085.46
2023-05-21T10:55:42.603Z,99087.67
2023-05-21T10:57:22.999Z,99088.62
2023-05-21T10:58:59.965Z,99087.28
2023-05-21T11:00:09.981Z,99082.83
2023-05-21T11:01:18.159Z,99082.43
2023-05-21T11:02:28.184Z,99083.54
2023-05-21T11:03:37.914Z,99082.20
2023-05-21T11:04:50.573Z,99082.31
2023-05-21T11:05:59.738Z,99082.46
2023-05-21T11:07:08.274Z,99084.58
2023-05-21T11:08:29.661Z,99081.32
2023-05-21T11:09:37.378Z,99083.16
2023-05-21T11:10:47.116Z,99084.77
2023-05-21T11:11:55.210Z,99083.42
2023-05-21T11:13:16.498Z,99084.02
2023-05-21T11:14:45.357Z,99083.90
2023-05-21T11:16:08.370Z,99083.06
2023-05-21T11:17:17.995Z,99082.23
2023-05-21T11:19:02.176Z,99086.09
2023-05-21T11:20:18.052Z,99085.64
2023-05-21T11:21:30.364Z,99082.23
2023-05-21T11:22:38.213Z,99084.90
2023-05-21T11:23:55.590Z,99084.18
2023-05-21T11:25:04.731Z,99077.98
2023-05-21T11:26:13.240Z,99079.37
2023-05-21T11:27:43.325Z,99079.81
2023-05-21T11:29:11.397Z,99082.10
2023-05-21T11:30:19.798Z,99079.15
2023-05-21T11:31:28.529Z,99078.19
2023-05-21T11:32:38.478Z,99076.39
2023-05-21T11:33:45.351Z,99080.23
2023-05-21T11:34:53.163Z,99077.77
2023-05-21T11:36:07.765Z,99081.79
2023-05-21T11:37:28.022Z,99080.60
2023-05-21T11:38:35.339Z,99079.44
2023-05-21T11:39:42.174Z,99078.10
2023-05-21T11:40:56.749Z,99079.14
2023-05-21T11:42:04.656Z,99075.74
2023-05-21T11:43:11.605Z,99075.39
2023-05-21T11:44:18.109Z,99072.53
2023-05-21T11:45:34.220Z,99070.90
2023-05-21T11:46:41.750Z,99070.77
2023-05-21T11:47:50.934Z,99068.81
2023-05-21T11:48:59.048Z,99064.52
2023-05-21T11:50:08.690Z,99064.95
2023-05-21T11:51:16.070Z,99061.48
2023-05-21T11:52:23.969Z,99061.58
2023-05-21T11:53:33.896Z,99063.46
2023-05-21T11:54:49.785Z,99062.96
2023-05-21T11:55:59.468Z,99063.92
2023-05-21T11:57:10.850Z,99069.20
2023-05-21T11:58:21.661Z,99065.09
2023-05-21T11:59:30.743Z,99059.45
2023-05-21T12:00:43.970Z,99056.93
2023-05-21T12:01:51.016Z,99053.74
2023-05-21T12:02:57.890Z,99053.92
2023-05-21T12:04:07.941Z,99056.80
2023-05-21T12:05:16.026Z,99056.80
2023-05-21T12:06:30.266Z,99056.02
2023-05-21T12:07:38.201Z,99056.80
2023-05-21T12:08:44.718Z,99060.02
2023-05-21T12:09:53.752Z,99059.63
2023-05-21T12:11:02.925Z,99058.27
2023-05-21T12:12:11.972Z,99055.48
2023-05-21T12:13:18.629Z,99052.17
2023-05-21T12:14:25.633Z,99050.77
2023-05-21T12:15:33.484Z,99053.05
2023-05-21T12:16:41.340Z,99053.44
2023-05-21T12:17:54.354Z,99054.19
2023-05-21T12:19:02.178Z,99055.52
2023-05-21T12:20:12.290Z,99059.14
2023-05-21T12:21:19.659Z,99057.78
2023-05-21T12:22:31.783Z,99059.01
2023-05-21T12:23:39.498Z,99059.17
2023-05-21T12:24:46.790Z,99059.37
2023-05-21T12:25:55.824Z,99059.81
2023-05-21T12:27:05.581Z,99058.69
2023-05-21T12:28:14.381Z,99062.63
2023-05-21T12:29:22.866Z,99060.51
2023-05-21T12:30:30.075Z,99062.69
2023-05-21T12:31:51.393Z,99065.91
2023-05-21T12:33:01.132Z,99063.91
2023-05-21T12:34:09.869Z,99066.27
2023-05-21T12:35:24.811Z,99066.04
2023-05-21T12:36:34.249Z,99064.47
2023-05-21T12:37:42.225Z,99066.55
2023-05-21T12:38:49.042Z,99068.41
2023-05-21T12:39:57.736Z,99067.08
2023-05-21T12:41:08.457Z,99070.42
2023-05-21T12:42:16.344Z,99070.41
2023-05-21T12:43:24.453Z,99069.46
2023-05-21T12:44:34.850Z,99070.52
2023-05-21T12:45:45.500Z,99071.98
2023-05-21T12:46:55.041Z,99072.30
2023-05-21T12:48:07.108Z,99075.36
2023-05-21T12:49:41.014Z,99075.36
2023-05-21T12:50:48.486Z,99076.56
2023-05-21T12:51:58.956Z,99077.52
2023-05-21T12:53:07.126Z,99080.58
2023-05-21T12:54:15.307Z,99080.24
2023-05-21T12:55:22.280Z,99085.42
2023-05-21T12:56:29.406Z,99085.86
2023-05-21T12:57:40.243Z,99088.75
2023-05-21T12:58:51.649Z,99088.82
2023-05-21T13:00:02.871Z,99089.55
2023-05-21T13:01:13.670Z,99092.92
2023-05-21T13:02:26.652Z,99094.01
2023-05-21T13:03:38.627Z,99097.17
2023-05-21T13:04:45.374Z,99095.33
2023-05-21T13:06:01.516Z,99093.56
2023-05-21T13:07:10.129Z,99094.61
2023-05-21T13:08:19.444Z,99093.27
2023-05-21T13:09:27.985Z,99095.44
2023-05-21T13:10:35.887Z,99094.55
2023-05-21T13:11:43.123Z,99092.92
2023-05-21T13:12:50.132Z,99094.53
2023-05-21T13:13:57.366Z,99092.16
2023-05-21T13:15:06.631Z,99092.49
2023-05-21T13:16:14.670Z,99093.67
2023-05-21T13:17:22.971Z,99095.61
2023-05-21T13:18:30.972Z,99095.79
2023-05-21T13:19:38.596Z,99099.06
2023-05-21T13:20:46.637Z,99099.06
2023-05-21T13:21:54.475Z,99098.50
2023-05-21T13:23:04.881Z,99098.21
2023-05-21T13:24:13.427Z,99097.21
2023-05-21T13:25:23.074Z,99097.31
2023-05-21T13:26:31.285Z,99094.95
2023-05-21T13:27:38.661Z,99090.27
2023-05-21T13:28:46.638Z,99093.11
2023-05-21T13:29:54.802Z,99094.73
2023-05-21T13:31:03.276Z,99097.46
2023-05-21T13:32:11.160Z,99102.02
2023-05-21T13:33:18.959Z,99102.41
2023-05-21T13:34:26.847Z,99105.63
2023-05-21T13:35:34.982Z,99106.02
2023-05-21T13:36:42.798Z,99108.29
2023-05-21T13:37:50.941Z,99108.00
2023-05-21T13:38:58.691Z,99109.83
2023-05-21T13:40:08.385Z,99111.83
2023-05-21T13:41:16.058Z,99110.33
2023-05-21T13:42:23.935Z,99115.09